createdAt,value
2023-03-19T00:00:58.549Z,1006.33
2023-03-19T00:02:04.068Z,1006.35
2023-03-19T00:02:59.812Z,1006.35
2023-03-19T00:03:58.497Z,1006.33
2023-03-19T00:04:58.485Z,1006.38
2023-03-19T00:05:58.474Z,1006.33
2023-03-19T00:06:58.432Z,1006.32
2023-03-19T00:07:58.428Z,1006.32
2023-03-19T00:08:58.428Z,1006.31
2023-03-19T00:09:58.428Z,1006.29
2023-03-19T00:10:58.393Z,1006.28
2023-03-19T00:11:58.403Z,1006.30
2023-03-19T00:12:58.382Z,1006.27
2023-03-19T00:13:58.389Z,1006.35
2023-03-19T00:14:58.347Z,1006.33
2023-03-19T00:15:58.350Z,1006.40
2023-03-19T00:16:58.413Z,1006.40
2023-03-19T00:17:58.329Z,1006.37
2023-03-19T00:18:58.317Z,1006.36
2023-03-19T00:19:58.305Z,1006.36
2023-03-19T00:20:58.299Z,1006.34
2023-03-19T00:21:58.285Z,1006.37
2023-03-19T00:22:58.267Z,1006.33
2023-03-19T00:23:58.259Z,1006.31
2023-03-19T00:24:58.247Z,1006.31
2023-03-19T00:25:58.236Z,1006.29
2023-03-19T00:26:58.232Z,1006.28
2023-03-19T00:27:58.218Z,1006.27
2023-03-19T00:28:58.190Z,1006.29
2023-03-19T00:29:58.204Z,1006.26
2023-03-19T00:30:58.256Z,1006.31
2023-03-19T00:31:58.156Z,1006.26
2023-03-19T00:32:58.180Z,1006.26
2023-03-19T00:33:58.169Z,1006.26
2023-03-19T00:34:58.119Z,1006.28
2023-03-19T00:35:58.124Z,1006.26
2023-03-19T00:36:58.160Z,1006.26
2023-03-19T00:37:58.104Z,1006.27
2023-03-19T00:38:58.088Z,1006.28
2023-03-19T00:39:58.070Z,1006.28
2023-03-19T00:40:58.068Z,1006.24
2023-03-19T00:41:58.073Z,1006.27
2023-03-19T00:42:58.041Z,1006.26
2023-03-19T00:43:58.055Z,1006.24
2023-03-19T00:44:58.018Z,1006.22
2023-03-19T00:45:58.043Z,1006.26
2023-03-19T00:46:57.983Z,1006.26
2023-03-19T00:47:57.992Z,1006.22
2023-03-19T00:48:57.984Z,1006.25
2023-03-19T00:49:57.957Z,1006.23
2023-03-19T00:50:57.953Z,1006.24
2023-03-19T00:51:57.932Z,1006.24
2023-03-19T00:52:57.970Z,1006.26
2023-03-19T00:53:57.929Z,1006.29
2023-03-19T00:54:57.908Z,1006.31
2023-03-19T00:55:57.899Z,1006.33
2023-03-19T00:56:57.879Z,1006.35
2023-03-19T00:57:57.890Z,1006.32
2023-03-19T00:58:57.866Z,1006.31
2023-03-19T00:59:57.838Z,1006.34
2023-03-19T01:00:57.907Z,1006.32
2023-03-19T01:01:57.830Z,1006.29
2023-03-19T01:02:57.886Z,1006.29
2023-03-19T01:03:58.028Z,1006.28
2023-03-19T01:04:57.792Z,1006.26
2023-03-19T01:05:57.783Z,1006.24
2023-03-19T01:06:57.770Z,1006.23
2023-03-19T01:07:57.760Z,1006.25
2023-03-19T01:08:57.783Z,1006.21
2023-03-19T01:09:57.723Z,1006.26
2023-03-19T01:10:57.720Z,1006.25
2023-03-19T01:11:57.704Z,1006.26
2023-03-19T01:12:57.702Z,1006.25
2023-03-19T01:13:57.677Z,1006.25
2023-03-19T01:14:57.847Z,1006.22
2023-03-19T01:15:57.670Z,1006.26
2023-03-19T01:16:57.639Z,1006.28
2023-03-19T01:17:57.645Z,1006.32
2023-03-19T01:18:57.645Z,1006.36
2023-03-19T01:19:57.625Z,1006.35
2023-03-19T01:20:57.608Z,1006.36
2023-03-19T01:21:57.603Z,1006.34
2023-03-19T01:22:57.576Z,1006.33
2023-03-19T01:23:57.595Z,1006.37
2023-03-19T01:24:57.613Z,1006.37
2023-03-19T01:25:57.589Z,1006.30
2023-03-19T01:26:57.600Z,1006.35
2023-03-19T01:27:57.543Z,1006.30
2023-03-19T01:28:57.543Z,1006.30
2023-03-19T01:29:57.523Z,1006.31
2023-03-19T01:30:57.516Z,1006.28
2023-03-19T01:31:57.485Z,1006.29
2023-03-19T01:32:57.533Z,1006.29
2023-03-19T01:33:57.586Z,1006.28
2023-03-19T01:34:57.456Z,1006.24
2023-03-19T01:35:57.500Z,1006.31
2023-03-19T01:36:57.457Z,1006.25
2023-03-19T01:37:57.445Z,1006.27
2023-03-19T01:38:57.568Z,1006.28
2023-03-19T01:39:57.462Z,1006.28
2023-03-19T01:40:57.463Z,1006.25
2023-03-19T01:41:57.487Z,1006.23
2023-03-19T01:42:57.415Z,1006.25
2023-03-19T01:43:57.381Z,1006.25
2023-03-19T01:44:57.355Z,1006.25
2023-03-19T01:45:57.407Z,1006.23
2023-03-19T01:46:57.317Z,1006.24
2023-03-19T01:47:57.308Z,1006.22
2023-03-19T01:48:57.309Z,1006.25
2023-03-19T01:49:57.277Z,1006.22
2023-03-19T01:50:57.270Z,1006.18
2023-03-19T01:51:57.265Z,1006.16
2023-03-19T01:52:57.233Z,1006.18
2023-03-19T01:53:57.258Z,1006.19
2023-03-19T01:54:57.211Z,1006.19
2023-03-19T01:55:57.216Z,1006.17
2023-03-19T01:56:57.213Z,1006.18
2023-03-19T01:57:57.183Z,1006.14
2023-03-19T01:58:57.244Z,1006.16
2023-03-19T01:59:57.172Z,1006.16
2023-03-19T02:00:57.153Z,1006.13
2023-03-19T02:01:57.272Z,1006.11
2023-03-19T02:02:57.136Z,1006.11
2023-03-19T02:03:57.144Z,1006.09
2023-03-19T02:04:57.112Z,1006.11
2023-03-19T02:05:57.091Z,1006.12
2023-03-19T02:06:57.098Z,1006.14
2023-03-19T02:07:57.080Z,1006.12
2023-03-19T02:08:57.093Z,1006.15
2023-03-19T02:09:57.060Z,1006.17
2023-03-19T02:10:57.047Z,1006.16
2023-03-19T02:11:57.024Z,1006.16
2023-03-19T02:12:57.132Z,1006.18
2023-03-19T02:13:57.024Z,1006.16
2023-03-19T02:14:56.998Z,1006.20
2023-03-19T02:15:56.998Z,1006.19
2023-03-19T02:16:56.996Z,1006.20
2023-03-19T02:17:56.963Z,1006.18
2023-03-19T02:18:56.981Z,1006.18
2023-03-19T02:19:56.952Z,1006.22
2023-03-19T02:20:56.932Z,1006.18
2023-03-19T02:21:56.923Z,1006.21
2023-03-19T02:22:56.922Z,1006.21
2023-03-19T02:23:56.915Z,1006.22
2023-03-19T02:24:56.885Z,1006.17
2023-03-19T02:25:56.882Z,1006.19
2023-03-19T02:26:56.848Z,1006.17
2023-03-19T02:27:56.853Z,1006.18
2023-03-19T02:28:56.891Z,1006.17
2023-03-19T02:29:56.824Z,1006.15
2023-03-19T02:30:56.839Z,1006.16
2023-03-19T02:31:56.795Z,1006.13
2023-03-19T02:32:56.867Z,1006.13
2023-03-19T02:33:56.810Z,1006.15
2023-03-19T02:34:56.758Z,1006.13
2023-03-19T02:35:56.839Z,1006.14
2023-03-19T02:36:56.738Z,1006.16
2023-03-19T02:37:56.746Z,1006.13
2023-03-19T02:38:56.760Z,1006.13
2023-03-19T02:39:56.743Z,1006.14
2023-03-19T02:40:56.690Z,1006.09
2023-03-19T02:41:56.686Z,1006.08
2023-03-19T02:42:56.669Z,1006.14
2023-03-19T02:43:56.688Z,1006.14
2023-03-19T02:44:56.672Z,1006.14
2023-03-19T02:45:56.660Z,1006.16
2023-03-19T02:46:56.704Z,1006.12
2023-03-19T02:47:56.631Z,1006.12
2023-03-19T02:48:56.629Z,1006.14
2023-03-19T02:49:56.626Z,1006.18
2023-03-19T02:50:56.588Z,1006.19
2023-03-19T02:51:56.585Z,1006.16
2023-03-19T02:52:56.573Z,1006.20
2023-03-19T02:53:56.567Z,1006.21
2023-03-19T02:54:56.533Z,1006.26
2023-03-19T02:55:56.525Z,1006.23
2023-03-19T02:56:56.513Z,1006.26
2023-03-19T02:57:56.531Z,1006.27
2023-03-19T02:58:56.501Z,1006.24
2023-03-19T02:59:56.515Z,1006.21
2023-03-19T03:00:56.540Z,1006.22
2023-03-19T03:01:56.476Z,1006.23
2023-03-19T03:02:56.462Z,1006.25
2023-03-19T03:03:56.467Z,1006.22
2023-03-19T03:04:56.431Z,1006.20
2023-03-19T03:05:56.434Z,1006.23
2023-03-19T03:06:56.418Z,1006.21
2023-03-19T03:07:56.411Z,1006.24
2023-03-19T03:08:56.398Z,1006.22
2023-03-19T03:09:56.395Z,1006.25
2023-03-19T03:10:56.361Z,1006.21
2023-03-19T03:11:56.358Z,1006.23
2023-03-19T03:12:56.383Z,1006.23
2023-03-19T03:13:56.333Z,1006.21
2023-03-19T03:14:56.329Z,1006.20
2023-03-19T03:15:56.423Z,1006.21
2023-03-19T03:16:56.320Z,1006.18
2023-03-19T03:17:56.288Z,1006.20
2023-03-19T03:18:56.294Z,1006.21
2023-03-19T03:19:56.264Z,1006.18
2023-03-19T03:20:56.264Z,1006.22
2023-03-19T03:21:56.259Z,1006.23
2023-03-19T03:22:56.228Z,1006.21
2023-03-19T03:23:56.233Z,1006.22
2023-03-19T03:24:56.266Z,1006.25
2023-03-19T03:25:56.204Z,1006.26
2023-03-19T03:26:56.198Z,1006.22
2023-03-19T03:27:56.191Z,1006.23
2023-03-19T03:28:56.178Z,1006.28
2023-03-19T03:29:56.261Z,1006.25
2023-03-19T03:30:56.139Z,1006.24
2023-03-19T03:31:56.254Z,1006.21
2023-03-19T03:32:56.183Z,1006.30
2023-03-19T03:33:56.108Z,1006.29
2023-03-19T03:34:56.127Z,1006.33
2023-03-19T03:35:56.146Z,1006.29
2023-03-19T03:36:56.076Z,1006.32
2023-03-19T03:37:56.063Z,1006.33
2023-03-19T03:38:56.067Z,1006.33
2023-03-19T03:39:56.086Z,1006.34
2023-03-19T03:40:56.042Z,1006.37
2023-03-19T03:41:56.024Z,1006.32
2023-03-19T03:42:56.017Z,1006.36
2023-03-19T03:43:55.995Z,1006.36
2023-03-19T03:44:56.018Z,1006.34
2023-03-19T03:45:56.007Z,1006.38
2023-03-19T03:46:55.966Z,1006.41
2023-03-19T03:47:55.948Z,1006.39
2023-03-19T03:48:55.967Z,1006.43
2023-03-19T03:49:55.946Z,1006.45
2023-03-19T03:50:55.958Z,1006.48
2023-03-19T03:51:55.902Z,1006.50
2023-03-19T03:52:55.897Z,1006.51
2023-03-19T03:53:55.884Z,1006.51
2023-03-19T03:54:55.897Z,1006.52
2023-03-19T03:55:55.859Z,1006.51
2023-03-19T03:56:55.860Z,1006.49
2023-03-19T03:57:55.837Z,1006.52
2023-03-19T03:58:55.849Z,1006.53
2023-03-19T03:59:55.841Z,1006.53
2023-03-19T04:00:55.811Z,1006.54
2023-03-19T04:01:55.914Z,1006.50
2023-03-19T04:02:55.823Z,1006.52
2023-03-19T04:03:55.793Z,1006.51
2023-03-19T04:04:55.800Z,1006.51
2023-03-19T04:05:55.765Z,1006.48
2023-03-19T04:06:55.776Z,1006.47
2023-03-19T04:07:55.725Z,1006.44
2023-03-19T04:08:55.725Z,1006.49
2023-03-19T04:09:55.739Z,1006.45
2023-03-19T04:10:55.721Z,1006.49
2023-03-19T04:11:55.688Z,1006.45
2023-03-19T04:12:55.689Z,1006.44
2023-03-19T04:13:55.673Z,1006.45
2023-03-19T04:14:55.663Z,1006.43
2023-03-19T04:15:55.655Z,1006.42
2023-03-19T04:16:55.645Z,1006.52
2023-03-19T04:17:55.647Z,1006.50
2023-03-19T04:18:55.605Z,1006.52
2023-03-19T04:19:55.605Z,1006.51
2023-03-19T04:20:55.632Z,1006.51
2023-03-19T04:21:55.568Z,1006.51
2023-03-19T04:22:55.561Z,1006.55
2023-03-19T04:23:55.547Z,1006.51
2023-03-19T04:24:55.558Z,1006.53
2023-03-19T04:25:55.524Z,1006.60
2023-03-19T04:26:55.529Z,1006.58
2023-03-19T04:27:55.515Z,1006.60
2023-03-19T04:28:55.493Z,1006.57
2023-03-19T04:29:55.516Z,1006.57
2023-03-19T04:30:55.517Z,1006.56
2023-03-19T04:31:55.457Z,1006.56
2023-03-19T04:32:55.511Z,1006.55
2023-03-19T04:33:55.444Z,1006.56
2023-03-19T04:34:55.445Z,1006.56
2023-03-19T04:35:55.525Z,1006.54
2023-03-19T04:36:55.446Z,1006.55
2023-03-19T04:37:55.401Z,1006.60
2023-03-19T04:38:55.395Z,1006.65
2023-03-19T04:39:55.401Z,1006.63
2023-03-19T04:40:55.375Z,1006.66
2023-03-19T04:41:55.361Z,1006.64
2023-03-19T04:42:55.351Z,1006.62
2023-03-19T04:43:55.358Z,1006.61
2023-03-19T04:44:55.341Z,1006.59
2023-03-19T04:45:55.378Z,1006.62
2023-03-19T04:46:55.290Z,1006.69
2023-03-19T04:47:55.276Z,1006.70
2023-03-19T04:48:55.269Z,1006.73
2023-03-19T04:49:55.278Z,1006.74
2023-03-19T04:50:55.258Z,1006.75
2023-03-19T04:51:55.231Z,1006.71
2023-03-19T04:52:55.270Z,1006.69
2023-03-19T04:53:55.222Z,1006.71
2023-03-19T04:54:55.218Z,1006.71
2023-03-19T04:55:55.227Z,1006.76
2023-03-19T04:56:55.218Z,1006.78
2023-03-19T04:57:55.164Z,1006.78
2023-03-19T04:58:55.163Z,1006.79
2023-03-19T04:59:55.141Z,1006.79
2023-03-19T05:00:55.152Z,1006.78
2023-03-19T05:01:55.129Z,1006.80
2023-03-19T05:02:55.110Z,1006.79
2023-03-19T05:03:55.146Z,1006.81
2023-03-19T05:04:55.090Z,1006.81
2023-03-19T05:05:55.132Z,1006.80
2023-03-19T05:06:55.081Z,1006.76
2023-03-19T05:07:55.065Z,1006.79
2023-03-19T05:08:55.081Z,1006.81
2023-03-19T05:09:55.028Z,1006.82
2023-03-19T05:10:55.021Z,1006.82
2023-03-19T05:11:55.039Z,1006.83
2023-03-19T05:12:55.010Z,1006.83
2023-03-19T05:13:54.990Z,1006.85
2023-03-19T05:14:54.979Z,1006.85
2023-03-19T05:15:55.058Z,1006.85
2023-03-19T05:16:54.969Z,1006.85
2023-03-19T05:17:54.964Z,1006.82
2023-03-19T05:18:54.932Z,1006.82
2023-03-19T05:19:54.942Z,1006.84
2023-03-19T05:20:54.937Z,1006.85
2023-03-19T05:21:54.894Z,1006.88
2023-03-19T05:22:54.901Z,1006.91
2023-03-19T05:23:54.930Z,1006.96
2023-03-19T05:24:54.921Z,1006.97
2023-03-19T05:25:54.868Z,1006.96
2023-03-19T05:26:54.850Z,1006.94
2023-03-19T05:27:54.868Z,1006.97
2023-03-19T05:28:54.834Z,1006.97
2023-03-19T05:29:54.822Z,1007.01
2023-03-19T05:30:54.824Z,1007.02
2023-03-19T05:31:54.806Z,1007.00
2023-03-19T05:32:54.856Z,1007.07
2023-03-19T05:33:54.778Z,1007.00
2023-03-19T05:34:54.787Z,1007.06
2023-03-19T05:35:56.440Z,1007.06
2023-03-19T05:36:54.730Z,1007.01
2023-03-19T05:37:54.715Z,1007.00
2023-03-19T05:38:54.726Z,1006.99
2023-03-19T05:39:54.708Z,1007.00
2023-03-19T05:40:54.737Z,1006.99
2023-03-19T05:41:54.670Z,1006.97
2023-03-19T05:42:54.680Z,1007.00
2023-03-19T05:43:54.662Z,1007.02
2023-03-19T05:44:54.666Z,1007.06
2023-03-19T05:45:54.658Z,1007.08
2023-03-19T05:46:54.641Z,1007.08
2023-03-19T05:47:54.603Z,1007.09
2023-03-19T05:48:54.596Z,1007.14
2023-03-19T05:49:54.603Z,1007.11
2023-03-19T05:50:54.598Z,1007.13
2023-03-19T05:51:54.570Z,1007.14
2023-03-19T05:52:54.561Z,1007.19
2023-03-19T05:53:54.541Z,1007.19
2023-03-19T05:54:54.542Z,1007.24
2023-03-19T05:55:54.546Z,1007.20
2023-03-19T05:56:54.536Z,1007.20
2023-03-19T05:57:54.495Z,1007.25
2023-03-19T05:58:54.495Z,1007.22
2023-03-19T05:59:54.480Z,1007.23
2023-03-19T06:00:54.491Z,1007.25
2023-03-19T06:01:54.474Z,1007.23
2023-03-19T06:02:54.494Z,1007.24
2023-03-19T06:03:54.526Z,1007.26
2023-03-19T06:04:54.425Z,1007.22
2023-03-19T06:05:54.429Z,1007.26
2023-03-19T06:06:54.387Z,1007.25
2023-03-19T06:07:54.392Z,1007.24
2023-03-19T06:08:54.391Z,1007.25
2023-03-19T06:09:54.376Z,1007.23
2023-03-19T06:10:54.394Z,1007.28
2023-03-19T06:11:54.342Z,1007.26
2023-03-19T06:12:54.356Z,1007.25
2023-03-19T06:13:54.305Z,1007.31
2023-03-19T06:14:54.322Z,1007.35
2023-03-19T06:15:54.387Z,1007.34
2023-03-19T06:16:54.281Z,1007.30
2023-03-19T06:17:54.269Z,1007.38
2023-03-19T06:18:54.283Z,1007.32
2023-03-19T06:19:54.239Z,1007.32
2023-03-19T06:20:54.245Z,1007.39
2023-03-19T06:21:54.238Z,1007.40
2023-03-19T06:22:54.225Z,1007.39
2023-03-19T06:23:54.222Z,1007.34
2023-03-19T06:24:54.206Z,1007.34
2023-03-19T06:25:54.171Z,1007.37
2023-03-19T06:26:54.181Z,1007.37
2023-03-19T06:27:54.147Z,1007.38
2023-03-19T06:28:54.192Z,1007.37
2023-03-19T06:29:54.153Z,1007.42
2023-03-19T06:30:54.137Z,1007.40
2023-03-19T06:31:56.176Z,1007.40
2023-03-19T06:32:54.200Z,1007.40
2023-03-19T06:33:54.118Z,1007.39
2023-03-19T06:34:54.084Z,1007.40
2023-03-19T06:35:54.139Z,1007.34
2023-03-19T06:36:54.079Z,1007.36
2023-03-19T06:37:54.064Z,1007.35
2023-03-19T06:38:54.042Z,1007.35
2023-03-19T06:39:54.021Z,1007.41
2023-03-19T06:40:54.041Z,1007.41
2023-03-19T06:41:54.058Z,1007.45
2023-03-19T06:42:53.989Z,1007.44
2023-03-19T06:43:53.995Z,1007.45
2023-03-19T06:44:54.020Z,1007.50
2023-03-19T06:45:54.073Z,1007.45
2023-03-19T06:46:53.946Z,1007.52
2023-03-19T06:47:53.940Z,1007.55
2023-03-19T06:48:53.925Z,1007.57
2023-03-19T06:49:53.945Z,1007.58
2023-03-19T06:50:53.928Z,1007.62
2023-03-19T06:51:53.886Z,1007.60
2023-03-19T06:52:53.882Z,1007.63
2023-03-19T06:53:53.882Z,1007.64
2023-03-19T06:54:53.861Z,1007.58
2023-03-19T06:55:53.875Z,1007.62
2023-03-19T06:56:53.836Z,1007.62
2023-03-19T06:57:53.831Z,1007.63
2023-03-19T06:58:53.817Z,1007.61
2023-03-19T06:59:53.819Z,1007.58
2023-03-19T07:00:53.895Z,1007.64
2023-03-19T07:01:53.776Z,1007.62
2023-03-19T07:02:53.797Z,1007.62
2023-03-19T07:03:53.814Z,1007.67
2023-03-19T07:04:53.744Z,1007.67
2023-03-19T07:05:53.763Z,1007.70
2023-03-19T07:06:53.730Z,1007.72
2023-03-19T07:07:53.765Z,1007.73
2023-03-19T07:08:53.706Z,1007.72
2023-03-19T07:09:53.695Z,1007.74
2023-03-19T07:10:53.696Z,1007.75
2023-03-19T07:11:53.669Z,1007.77
2023-03-19T07:12:53.667Z,1007.76
2023-03-19T07:13:53.669Z,1007.76
2023-03-19T07:14:53.638Z,1007.80
2023-03-19T07:15:53.639Z,1007.81
2023-03-19T07:16:53.657Z,1007.81
2023-03-19T07:17:53.606Z,1007.83
2023-03-19T07:18:53.600Z,1007.85
2023-03-19T07:19:53.569Z,1007.85
2023-03-19T07:20:53.643Z,1007.83
2023-03-19T07:21:53.556Z,1007.84
2023-03-19T07:22:53.540Z,1007.88
2023-03-19T07:23:53.551Z,1007.90
2023-03-19T07:24:53.522Z,1007.90
2023-03-19T07:25:53.516Z,1007.86
2023-03-19T07:26:53.508Z,1007.86
2023-03-19T07:27:55.923Z,1007.88
2023-03-19T07:28:53.486Z,1007.89
2023-03-19T07:29:53.483Z,1007.90
2023-03-19T07:30:53.461Z,1007.91
2023-03-19T07:31:53.530Z,1007.97
2023-03-19T07:32:53.513Z,1007.93
2023-03-19T07:33:53.413Z,1007.95
2023-03-19T07:34:53.414Z,1007.96
2023-03-19T07:35:53.519Z,1007.96
2023-03-19T07:36:53.420Z,1007.95
2023-03-19T07:37:53.369Z,1007.95
2023-03-19T07:38:53.363Z,1008.01
2023-03-19T07:39:53.378Z,1008.02
2023-03-19T07:41:02.006Z,1008.00
2023-03-19T07:41:54.360Z,1008.03
2023-03-19T07:42:53.358Z,1008.02
2023-03-19T07:43:53.312Z,1008.01
2023-03-19T07:44:53.308Z,1008.00
2023-03-19T07:45:53.376Z,1008.01
2023-03-19T07:46:53.318Z,1007.95
2023-03-19T07:47:53.286Z,1007.94
2023-03-19T07:48:53.273Z,1007.94
2023-03-19T07:49:53.246Z,1007.96
2023-03-19T07:50:53.228Z,1007.95
2023-03-19T07:51:53.240Z,1007.96
2023-03-19T07:52:53.196Z,1007.97
2023-03-19T07:53:53.191Z,1007.97
2023-03-19T07:54:53.173Z,1007.98
2023-03-19T07:55:53.173Z,1008.00
2023-03-19T07:56:53.182Z,1007.97
2023-03-19T07:57:53.159Z,1007.99
2023-03-19T07:58:53.140Z,1008.00
2023-03-19T07:59:53.122Z,1008.01
2023-03-19T08:00:53.110Z,1008.06
2023-03-19T08:01:53.217Z,1008.01
2023-03-19T08:02:53.112Z,1008.07
2023-03-19T08:03:53.092Z,1008.10
2023-03-19T08:04:53.215Z,1008.05
2023-03-19T08:05:53.061Z,1008.06
2023-03-19T08:06:53.056Z,1008.02
2023-03-19T08:07:53.042Z,1008.04
2023-03-19T08:08:53.029Z,1008.02
2023-03-19T08:09:53.013Z,1008.06
2023-03-19T08:10:53.010Z,1008.07
2023-03-19T08:11:53.007Z,1008.09
2023-03-19T08:12:52.973Z,1008.05
2023-03-19T08:13:52.990Z,1008.09
2023-03-19T08:14:52.984Z,1008.08
2023-03-19T08:15:52.958Z,1008.08
2023-03-19T08:16:53.103Z,1008.10
2023-03-19T08:17:52.940Z,1008.06
2023-03-19T08:18:52.935Z,1008.03
2023-03-19T08:19:52.915Z,1008.00
2023-03-19T08:20:52.918Z,1008.02
2023-03-19T08:21:52.887Z,1008.00
2023-03-19T08:22:52.866Z,1008.02
2023-03-19T08:23:52.863Z,1008.07
2023-03-19T08:24:52.852Z,1008.09
2023-03-19T08:25:52.841Z,1008.12
2023-03-19T08:26:52.841Z,1008.14
2023-03-19T08:27:52.873Z,1008.08
2023-03-19T08:28:52.803Z,1008.12
2023-03-19T08:29:52.783Z,1008.11
2023-03-19T08:30:52.855Z,1008.13
2023-03-19T08:31:52.778Z,1008.09
2023-03-19T08:32:52.772Z,1008.12
2023-03-19T08:33:52.751Z,1008.09
2023-03-19T08:34:52.723Z,1008.15
2023-03-19T08:35:52.834Z,1008.16
2023-03-19T08:36:52.776Z,1008.14
2023-03-19T08:37:52.716Z,1008.17
2023-03-19T08:38:52.678Z,1008.24
2023-03-19T08:39:52.676Z,1008.19
2023-03-19T08:40:52.654Z,1008.19
2023-03-19T08:41:52.680Z,1008.19
2023-03-19T08:42:52.653Z,1008.20
2023-03-19T08:43:52.686Z,1008.21
2023-03-19T08:44:52.617Z,1008.26
2023-03-19T08:45:52.735Z,1008.21
2023-03-19T08:46:52.616Z,1008.30
2023-03-19T08:47:52.578Z,1008.28
2023-03-19T08:48:52.589Z,1008.33
2023-03-19T08:49:52.592Z,1008.32
2023-03-19T08:50:52.558Z,1008.25
2023-03-19T08:51:52.593Z,1008.30
2023-03-19T08:52:52.560Z,1008.31
2023-03-19T08:53:52.536Z,1008.31
2023-03-19T08:54:52.511Z,1008.32
2023-03-19T08:55:52.492Z,1008.25
2023-03-19T08:56:52.505Z,1008.29
2023-03-19T08:57:52.474Z,1008.27
2023-03-19T08:58:52.468Z,1008.28
2023-03-19T08:59:52.468Z,1008.27
2023-03-19T09:00:52.446Z,1008.27
2023-03-19T09:01:52.561Z,1008.26
2023-03-19T09:02:52.409Z,1008.21
2023-03-19T09:03:52.426Z,1008.21
2023-03-19T09:04:52.498Z,1008.23
2023-03-19T09:05:52.541Z,1008.26
2023-03-19T09:06:52.405Z,1008.27
2023-03-19T09:07:52.360Z,1008.25
2023-03-19T09:08:52.381Z,1008.25
2023-03-19T09:09:52.334Z,1008.22
2023-03-19T09:10:52.367Z,1008.21
2023-03-19T09:11:52.332Z,1008.23
2023-03-19T09:12:52.316Z,1008.26
2023-03-19T09:13:52.292Z,1008.25
2023-03-19T09:14:52.277Z,1008.26
2023-03-19T09:15:52.383Z,1008.30
2023-03-19T09:16:52.310Z,1008.26
2023-03-19T09:17:52.245Z,1008.30
2023-03-19T09:18:52.247Z,1008.32
2023-03-19T09:19:52.229Z,1008.37
2023-03-19T09:20:52.226Z,1008.39
2023-03-19T09:21:52.276Z,1008.43
2023-03-19T09:22:52.204Z,1008.36
2023-03-19T09:23:52.205Z,1008.38
2023-03-19T09:24:52.225Z,1008.45
2023-03-19T09:25:52.180Z,1008.41
2023-03-19T09:26:52.164Z,1008.45
2023-03-19T09:27:52.143Z,1008.45
2023-03-19T09:28:52.124Z,1008.43
2023-03-19T09:29:52.130Z,1008.40
2023-03-19T09:30:52.185Z,1008.41
2023-03-19T09:31:52.105Z,1008.40
2023-03-19T09:32:52.130Z,1008.40
2023-03-19T09:33:52.091Z,1008.46
2023-03-19T09:34:52.069Z,1008.42
2023-03-19T09:35:52.076Z,1008.45
2023-03-19T09:36:52.064Z,1008.48
2023-03-19T09:37:52.255Z,1008.48
2023-03-19T09:38:52.015Z,1008.49
2023-03-19T09:39:52.026Z,1008.49
2023-03-19T09:40:52.027Z,1008.54
2023-03-19T09:41:52.008Z,1008.50
2023-03-19T09:42:51.975Z,1008.53
2023-03-19T09:43:51.990Z,1008.50
2023-03-19T09:44:51.944Z,1008.53
2023-03-19T09:45:51.942Z,1008.54
2023-03-19T09:46:52.013Z,1008.53
2023-03-19T09:47:51.933Z,1008.58
2023-03-19T09:48:51.929Z,1008.52
2023-03-19T09:49:51.900Z,1008.59
2023-03-19T09:50:51.891Z,1008.57
2023-03-19T09:51:51.894Z,1008.62
2023-03-19T09:52:51.857Z,1008.64
2023-03-19T09:53:51.862Z,1008.63
2023-03-19T09:54:51.842Z,1008.59
2023-03-19T09:55:51.825Z,1008.64
2023-03-19T09:56:51.858Z,1008.52
2023-03-19T09:57:51.806Z,1008.64
2023-03-19T09:58:51.815Z,1008.62
2023-03-19T09:59:51.802Z,1008.63
2023-03-19T10:00:51.780Z,1008.60
2023-03-19T10:01:51.818Z,1008.62
2023-03-19T10:02:51.749Z,1008.64
2023-03-19T10:03:51.792Z,1008.60
2023-03-19T10:04:51.722Z,1008.60
2023-03-19T10:05:51.740Z,1008.59
2023-03-19T10:06:51.729Z,1008.60
2023-03-19T10:07:51.694Z,1008.68
2023-03-19T10:08:51.689Z,1008.66
2023-03-19T10:09:51.668Z,1008.66
2023-03-19T10:10:51.677Z,1008.68
2023-03-19T10:11:51.701Z,1008.71
2023-03-19T10:12:51.668Z,1008.70
2023-03-19T10:13:51.632Z,1008.68
2023-03-19T10:14:51.624Z,1008.67
2023-03-19T10:15:51.667Z,1008.67
2023-03-19T10:16:51.640Z,1008.65
2023-03-19T10:17:51.577Z,1008.68
2023-03-19T10:18:52.251Z,1008.69
2023-03-19T10:19:51.558Z,1008.68
2023-03-19T10:20:51.548Z,1008.66
2023-03-19T10:21:51.562Z,1008.69
2023-03-19T10:22:51.534Z,1008.72
2023-03-19T10:23:51.515Z,1008.67
2023-03-19T10:24:51.498Z,1008.71
2023-03-19T10:25:51.502Z,1008.69
2023-03-19T10:26:51.501Z,1008.69
2023-03-19T10:27:51.481Z,1008.72
2023-03-19T10:28:51.535Z,1008.71
2023-03-19T10:29:51.449Z,1008.70
2023-03-19T10:30:51.432Z,1008.73
2023-03-19T10:31:51.469Z,1008.73
2023-03-19T10:32:51.455Z,1008.70
2023-03-19T10:33:51.408Z,1008.76
2023-03-19T10:34:51.400Z,1008.78
2023-03-19T10:35:51.448Z,1008.74
2023-03-19T10:36:51.381Z,1008.73
2023-03-19T10:37:51.372Z,1008.77
2023-03-19T10:38:51.355Z,1008.75
2023-03-19T10:39:51.333Z,1008.71
2023-03-19T10:40:51.335Z,1008.74
2023-03-19T10:41:51.358Z,1008.70
2023-03-19T10:42:51.314Z,1008.72
2023-03-19T10:43:51.293Z,1008.73
2023-03-19T10:44:51.352Z,1008.71
2023-03-19T10:45:51.334Z,1008.73
2023-03-19T10:46:51.351Z,1008.73
2023-03-19T10:47:51.275Z,1008.67
2023-03-19T10:48:51.241Z,1008.75
2023-03-19T10:49:51.220Z,1008.75
2023-03-19T10:50:51.337Z,1008.79
2023-03-19T10:51:51.242Z,1008.75
2023-03-19T10:52:51.199Z,1008.78
2023-03-19T10:53:51.189Z,1008.74
2023-03-19T10:54:51.157Z,1008.73
2023-03-19T10:55:51.184Z,1008.74
2023-03-19T10:56:51.157Z,1008.75
2023-03-19T10:57:51.146Z,1008.73
2023-03-19T10:58:51.129Z,1008.72
2023-03-19T10:59:51.124Z,1008.70
2023-03-19T11:00:51.210Z,1008.73
2023-03-19T11:01:51.098Z,1008.71
2023-03-19T11:02:51.083Z,1008.73
2023-03-19T11:03:51.206Z,1008.71
2023-03-19T11:04:51.057Z,1008.73
2023-03-19T11:05:51.058Z,1008.73
2023-03-19T11:06:51.059Z,1008.73
2023-03-19T11:07:51.022Z,1008.74
2023-03-19T11:08:51.002Z,1008.75
2023-03-19T11:09:51.018Z,1008.72
2023-03-19T11:10:50.980Z,1008.74
2023-03-19T11:11:51.311Z,1008.75
2023-03-19T11:12:50.969Z,1008.73
2023-03-19T11:13:50.976Z,1008.73
2023-03-19T11:14:50.935Z,1008.75
2023-03-19T11:15:50.952Z,1008.70
2023-03-19T11:16:51.091Z,1008.68
2023-03-19T11:17:50.920Z,1008.72
2023-03-19T11:18:50.897Z,1008.71
2023-03-19T11:19:50.898Z,1008.71
2023-03-19T11:20:50.882Z,1008.70
2023-03-19T11:21:50.907Z,1008.71
2023-03-19T11:22:50.859Z,1008.75
2023-03-19T11:23:50.890Z,1008.73
2023-03-19T11:24:50.834Z,1008.77
2023-03-19T11:25:50.819Z,1008.75
2023-03-19T11:26:50.820Z,1008.75
2023-03-19T11:27:50.792Z,1008.73
2023-03-19T11:28:50.872Z,1008.75
2023-03-19T11:29:50.781Z,1008.73
2023-03-19T11:30:50.791Z,1008.72
2023-03-19T11:31:50.785Z,1008.78
2023-03-19T11:32:50.786Z,1008.74
2023-03-19T11:33:50.746Z,1008.76
2023-03-19T11:34:52.527Z,1008.74
2023-03-19T11:35:50.730Z,1008.74
2023-03-19T11:36:50.723Z,1008.74
2023-03-19T11:37:50.698Z,1008.71
2023-03-19T11:38:50.670Z,1008.73
2023-03-19T11:39:50.669Z,1008.75
2023-03-19T11:40:50.650Z,1008.69
2023-03-19T11:41:50.690Z,1008.69
2023-03-19T11:42:50.624Z,1008.74
2023-03-19T11:43:50.739Z,1008.71
2023-03-19T11:44:50.616Z,1008.76
2023-03-19T11:45:50.620Z,1008.76
2023-03-19T11:46:50.595Z,1008.78
2023-03-19T11:47:50.589Z,1008.73
2023-03-19T11:48:50.648Z,1008.79
2023-03-19T11:49:50.562Z,1008.73
2023-03-19T11:50:50.546Z,1008.70
2023-03-19T11:51:50.574Z,1008.68
2023-03-19T11:52:50.519Z,1008.69
2023-03-19T11:53:50.536Z,1008.70
2023-03-19T11:54:50.496Z,1008.63
2023-03-19T11:55:50.495Z,1008.63
2023-03-19T11:56:50.524Z,1008.63
2023-03-19T11:57:50.463Z,1008.68
2023-03-19T11:58:50.460Z,1008.66
2023-03-19T11:59:50.441Z,1008.61
2023-03-19T12:00:50.425Z,1008.59
2023-03-19T12:01:50.452Z,1008.61
2023-03-19T12:02:50.501Z,1008.61
2023-03-19T12:03:50.429Z,1008.60
2023-03-19T12:04:50.414Z,1008.61
2023-03-19T12:05:50.388Z,1008.58